sensor_id;sensor_type;location;lat;lon;timestamp;P1;durP1;ratioP1;P2;durP2;ratioP2
18320;SDS011;54904;54.350;18.664;2024-01-30T00:00:30;36.30;;;16.37;;
18320;SDS011;54904;54.350;18.664;2024-01-30T00:02:57;34.33;;;15.67;;
18320;SDS011;54904;54.350;18.664;2024-01-30T00:05:24;36.43;;;16.40;;
18320;SDS011;54904;54.350;18.664;2024-01-30T00:07:52;38.70;;;16.57;;
18320;SDS011;54904;54.350;18.664;2024-01-30T00:10:19;32.43;;;16.03;;
18320;SDS011;54904;54.350;18.664;2024-01-30T00:12:46;36.00;;;16.60;;
18320;SDS011;54904;54.350;18.664;2024-01-30T00:15:13;33.80;;;15.77;;
18320;SDS011;54904;54.350;18.664;2024-01-30T00:17:40;28.13;;;13.90;;
18320;SDS011;54904;54.350;18.664;2024-01-30T00:20:08;32.87;;;15.87;;
18320;SDS011;54904;54.350;18.664;2024-01-30T00:22:36;35.67;;;15.67;;
18320;SDS011;54904;54.350;18.664;2024-01-30T00:25:04;38.63;;;17.13;;
18320;SDS011;54904;54.350;18.664;2024-01-30T00:27:32;37.77;;;16.90;;
18320;SDS011;54904;54.350;18.664;2024-01-30T00:29:59;38.03;;;16.43;;
18320;SDS011;54904;54.350;18.664;2024-01-30T00:32:26;38.50;;;17.60;;
18320;SDS011;54904;54.350;18.664;2024-01-30T00:34:52;39.57;;;17.37;;
18320;SDS011;54904;54.350;18.664;2024-01-30T00:37:19;35.70;;;16.03;;
18320;SDS011;54904;54.350;18.664;2024-01-30T00:39:47;36.70;;;16.87;;
18320;SDS011;54904;54.350;18.664;2024-01-30T00:42:15;35.73;;;16.53;;
18320;SDS011;54904;54.350;18.664;2024-01-30T00:44:42;36.83;;;17.23;;
18320;SDS011;54904;54.350;18.664;2024-01-30T00:47:09;47.90;;;20.97;;
18320;SDS011;54904;54.350;18.664;2024-01-30T00:49:36;46.17;;;19.47;;
18320;SDS011;54904;54.350;18.664;2024-01-30T00:52:04;47.53;;;19.40;;
18320;SDS011;54904;54.350;18.664;2024-01-30T00:54:31;47.60;;;20.20;;
18320;SDS011;54904;54.350;18.664;2024-01-30T00:56:58;40.23;;;18.33;;
18320;SDS011;54904;54.350;18.664;2024-01-30T00:59:27;42.63;;;19.30;;
18320;SDS011;54904;54.350;18.664;2024-01-30T01:01:54;41.70;;;17.13;;
18320;SDS011;54904;54.350;18.664;2024-01-30T01:04:21;35.60;;;15.97;;
18320;SDS011;54904;54.350;18.664;2024-01-30T01:06:48;44.20;;;18.10;;
18320;SDS011;54904;54.350;18.664;2024-01-30T01:09:16;39.93;;;17.60;;
18320;SDS011;54904;54.350;18.664;2024-01-30T01:11:43;41.07;;;18.83;;
18320;SDS011;54904;54.350;18.664;2024-01-30T01:14:10;38.33;;;16.87;;
18320;SDS011;54904;54.350;18.664;2024-01-30T01:16:38;41.97;;;17.70;;
18320;SDS011;54904;54.350;18.664;2024-01-30T01:19:06;42.63;;;18.73;;
18320;SDS011;54904;54.350;18.664;2024-01-30T01:21:33;43.23;;;18.53;;
18320;SDS011;54904;54.350;18.664;2024-01-30T01:24:03;43.40;;;19.10;;
18320;SDS011;54904;54.350;18.664;2024-01-30T01:26:30;37.60;;;17.03;;
18320;SDS011;54904;54.350;18.664;2024-01-30T01:28:57;42.33;;;17.20;;
18320;SDS011;54904;54.350;18.664;2024-01-30T01:31:24;42.30;;;18.73;;
18320;SDS011;54904;54.350;18.664;2024-01-30T01:33:56;41.50;;;19.63;;
18320;SDS011;54904;54.350;18.664;2024-01-30T01:36:23;40.93;;;18.80;;
18320;SDS011;54904;54.350;18.664;2024-01-30T01:38:50;36.00;;;17.00;;
18320;SDS011;54904;54.350;18.664;2024-01-30T01:41:17;43.10;;;18.23;;
18320;SDS011;54904;54.350;18.664;2024-01-30T01:43:45;36.20;;;16.30;;
18320;SDS011;54904;54.350;18.664;2024-01-30T01:46:12;32.33;;;16.20;;
18320;SDS011;54904;54.350;18.664;2024-01-30T01:48:41;36.90;;;17.07;;
18320;SDS011;54904;54.350;18.664;2024-01-30T01:51:11;39.33;;;19.20;;
18320;SDS011;54904;54.350;18.664;2024-01-30T01:53:38;43.17;;;19.60;;
18320;SDS011;54904;54.350;18.664;2024-01-30T01:56:08;44.33;;;18.73;;
18320;SDS011;54904;54.350;18.664;2024-01-30T01:58:35;42.40;;;19.60;;
18320;SDS011;54904;54.350;18.664;2024-01-30T02:01:04;45.07;;;18.53;;
18320;SDS011;54904;54.350;18.664;2024-01-30T02:03:31;39.90;;;18.07;;
18320;SDS011;54904;54.350;18.664;2024-01-30T02:05:59;38.00;;;16.80;;
18320;SDS011;54904;54.350;18.664;2024-01-30T02:08:27;36.23;;;17.10;;
18320;SDS011;54904;54.350;18.664;2024-01-30T02:10:54;35.17;;;16.43;;
18320;SDS011;54904;54.350;18.664;2024-01-30T02:13:21;41.80;;;18.67;;
18320;SDS011;54904;54.350;18.664;2024-01-30T02:15:49;37.57;;;17.60;;
18320;SDS011;54904;54.350;18.664;2024-01-30T02:18:16;40.13;;;18.63;;
18320;SDS011;54904;54.350;18.664;2024-01-30T02:20:45;44.90;;;19.80;;
18320;SDS011;54904;54.350;18.664;2024-01-30T02:23:14;43.77;;;19.53;;
18320;SDS011;54904;54.350;18.664;2024-01-30T02:25:42;39.53;;;18.90;;
18320;SDS011;54904;54.350;18.664;2024-01-30T02:28:10;35.60;;;17.27;;
18320;SDS011;54904;54.350;18.664;2024-01-30T02:30:38;37.00;;;17.00;;
18320;SDS011;54904;54.350;18.664;2024-01-30T02:33:05;32.13;;;15.07;;
18320;SDS011;54904;54.350;18.664;2024-01-30T02:35:32;26.13;;;13.57;;
18320;SDS011;54904;54.350;18.664;2024-01-30T02:38:00;34.70;;;16.00;;
18320;SDS011;54904;54.350;18.664;2024-01-30T02:40:28;35.50;;;15.17;;
18320;SDS011;54904;54.350;18.664;2024-01-30T02:42:55;28.13;;;13.50;;
18320;SDS011;54904;54.350;18.664;2024-01-30T02:45:23;25.80;;;13.17;;
18320;SDS011;54904;54.350;18.664;2024-01-30T02:47:50;30.07;;;13.53;;
18320;SDS011;54904;54.350;18.664;2024-01-30T02:50:17;29.97;;;13.97;;
18320;SDS011;54904;54.350;18.664;2024-01-30T02:52:44;24.03;;;11.93;;
18320;SDS011;54904;54.350;18.664;2024-01-30T02:55:11;26.20;;;12.37;;
18320;SDS011;54904;54.350;18.664;2024-01-30T02:57:39;29.63;;;13.90;;
18320;SDS011;54904;54.350;18.664;2024-01-30T03:00:07;38.80;;;16.40;;
18320;SDS011;54904;54.350;18.664;2024-01-30T03:02:35;32.37;;;14.43;;
18320;SDS011;54904;54.350;18.664;2024-01-30T03:05:03;28.10;;;13.43;;
18320;SDS011;54904;54.350;18.664;2024-01-30T03:07:31;31.23;;;14.50;;
18320;SDS011;54904;54.350;18.664;2024-01-30T03:09:58;25.13;;;12.80;;
18320;SDS011;54904;54.350;18.664;2024-01-30T03:12:25;30.23;;;13.90;;
18320;SDS011;54904;54.350;18.664;2024-01-30T03:14:53;21.97;;;11.73;;
18320;SDS011;54904;54.350;18.664;2024-01-30T03:17:20;28.13;;;14.00;;
18320;SDS011;54904;54.350;18.664;2024-01-30T03:19:49;34.43;;;16.07;;
18320;SDS011;54904;54.350;18.664;2024-01-30T03:22:16;37.27;;;16.63;;
18320;SDS011;54904;54.350;18.664;2024-01-30T03:24:43;29.10;;;14.27;;
18320;SDS011;54904;54.350;18.664;2024-01-30T03:27:10;30.93;;;15.23;;
18320;SDS011;54904;54.350;18.664;2024-01-30T03:29:37;32.97;;;15.80;;
18320;SDS011;54904;54.350;18.664;2024-01-30T03:32:06;34.03;;;15.20;;
18320;SDS011;54904;54.350;18.664;2024-01-30T03:34:33;33.90;;;17.07;;
18320;SDS011;54904;54.350;18.664;2024-01-30T03:37:00;35.97;;;16.53;;
18320;SDS011;54904;54.350;18.664;2024-01-30T03:39:27;34.67;;;16.23;;
18320;SDS011;54904;54.350;18.664;2024-01-30T03:41:54;33.13;;;15.83;;
18320;SDS011;54904;54.350;18.664;2024-01-30T03:44:21;40.07;;;18.57;;
18320;SDS011;54904;54.350;18.664;2024-01-30T03:46:48;37.20;;;17.37;;
18320;SDS011;54904;54.350;18.664;2024-01-30T03:49:17;43.30;;;18.20;;
18320;SDS011;54904;54.350;18.664;2024-01-30T03:51:44;37.93;;;17.77;;
18320;SDS011;54904;54.350;18.664;2024-01-30T03:54:12;36.13;;;16.73;;
18320;SDS011;54904;54.350;18.664;2024-01-30T03:56:39;41.97;;;16.73;;
18320;SDS011;54904;54.350;18.664;2024-01-30T03:59:07;35.13;;;15.67;;
18320;SDS011;54904;54.350;18.664;2024-01-30T04:01:34;51.30;;;20.83;;
18320;SDS011;54904;54.350;18.664;2024-01-30T04:04:01;45.37;;;18.77;;
18320;SDS011;54904;54.350;18.664;2024-01-30T04:06:29;41.23;;;19.13;;
18320;SDS011;54904;54.350;18.664;2024-01-30T04:08:56;44.60;;;18.57;;
18320;SDS011;54904;54.350;18.664;2024-01-30T04:11:23;37.83;;;18.57;;
18320;SDS011;54904;54.350;18.664;2024-01-30T04:13:50;41.40;;;18.47;;
18320;SDS011;54904;54.350;18.664;2024-01-30T04:16:20;37.87;;;17.57;;
18320;SDS011;54904;54.350;18.664;2024-01-30T04:18:48;36.37;;;17.10;;
18320;SDS011;54904;54.350;18.664;2024-01-30T04:21:15;30.63;;;14.30;;
18320;SDS011;54904;54.350;18.664;2024-01-30T04:23:43;37.47;;;16.07;;
18320;SDS011;54904;54.350;18.664;2024-01-30T04:26:11;28.60;;;14.53;;
18320;SDS011;54904;54.350;18.664;2024-01-30T04:28:37;26.60;;;12.93;;
18320;SDS011;54904;54.350;18.664;2024-01-30T04:31:04;29.23;;;14.27;;
18320;SDS011;54904;54.350;18.664;2024-01-30T04:33:32;31.47;;;14.77;;
18320;SDS011;54904;54.350;18.664;2024-01-30T04:35:59;33.77;;;15.07;;
18320;SDS011;54904;54.350;18.664;2024-01-30T04:38:26;29.93;;;13.90;;
18320;SDS011;54904;54.350;18.664;2024-01-30T04:40:54;24.37;;;12.30;;
18320;SDS011;54904;54.350;18.664;2024-01-30T04:43:21;24.33;;;12.17;;
18320;SDS011;54904;54.350;18.664;2024-01-30T04:45:49;29.57;;;13.33;;
18320;SDS011;54904;54.350;18.664;2024-01-30T04:48:16;24.20;;;13.07;;
18320;SDS011;54904;54.350;18.664;2024-01-30T04:50:43;29.03;;;14.03;;
18320;SDS011;54904;54.350;18.664;2024-01-30T04:53:10;30.03;;;14.43;;
18320;SDS011;54904;54.350;18.664;2024-01-30T04:55:37;28.70;;;13.40;;
18320;SDS011;54904;54.350;18.664;2024-01-30T04:58:05;28.67;;;14.07;;
18320;SDS011;54904;54.350;18.664;2024-01-30T05:00:32;24.27;;;12.07;;
18320;SDS011;54904;54.350;18.664;2024-01-30T05:03:00;24.50;;;12.53;;
18320;SDS011;54904;54.350;18.664;2024-01-30T05:05:27;32.87;;;14.53;;
18320;SDS011;54904;54.350;18.664;2024-01-30T05:07:54;28.73;;;13.97;;
18320;SDS011;54904;54.350;18.664;2024-01-30T05:10:21;29.23;;;14.37;;
18320;SDS011;54904;54.350;18.664;2024-01-30T05:12:48;29.60;;;14.57;;
18320;SDS011;54904;54.350;18.664;2024-01-30T05:15:16;34.20;;;15.90;;
18320;SDS011;54904;54.350;18.664;2024-01-30T05:17:43;35.60;;;15.80;;
18320;SDS011;54904;54.350;18.664;2024-01-30T05:20:11;28.63;;;14.10;;
18320;SDS011;54904;54.350;18.664;2024-01-30T05:22:38;30.33;;;13.90;;
18320;SDS011;54904;54.350;18.664;2024-01-30T05:25:10;24.60;;;12.73;;
18320;SDS011;54904;54.350;18.664;2024-01-30T05:27:37;25.80;;;12.40;;
18320;SDS011;54904;54.350;18.664;2024-01-30T05:30:05;28.40;;;13.50;;
18320;SDS011;54904;54.350;18.664;2024-01-30T05:32:34;30.37;;;13.50;;
18320;SDS011;54904;54.350;18.664;2024-01-30T05:35:02;27.90;;;13.33;;
18320;SDS011;54904;54.350;18.664;2024-01-30T05:37:29;30.40;;;14.63;;
18320;SDS011;54904;54.350;18.664;2024-01-30T05:39:56;29.27;;;12.67;;
18320;SDS011;54904;54.350;18.664;2024-01-30T05:42:23;35.80;;;15.37;;
18320;SDS011;54904;54.350;18.664;2024-01-30T05:44:51;39.97;;;16.30;;
18320;SDS011;54904;54.350;18.664;2024-01-30T05:47:18;35.77;;;15.93;;
18320;SDS011;54904;54.350;18.664;2024-01-30T05:49:46;33.83;;;15.00;;
18320;SDS011;54904;54.350;18.664;2024-01-30T05:52:13;29.67;;;12.30;;
18320;SDS011;54904;54.350;18.664;2024-01-30T05:54:41;31.43;;;13.70;;
18320;SDS011;54904;54.350;18.664;2024-01-30T05:57:09;29.77;;;13.37;;
18320;SDS011;54904;54.350;18.664;2024-01-30T05:59:36;31.73;;;13.83;;
18320;SDS011;54904;54.350;18.664;2024-01-30T06:02:03;30.93;;;14.70;;
18320;SDS011;54904;54.350;18.664;2024-01-30T06:04:30;34.20;;;16.13;;
18320;SDS011;54904;54.350;18.664;2024-01-30T06:06:58;31.33;;;14.23;;
18320;SDS011;54904;54.350;18.664;2024-01-30T06:09:27;31.83;;;16.07;;
18320;SDS011;54904;54.350;18.664;2024-01-30T06:11:54;31.90;;;13.70;;
18320;SDS011;54904;54.350;18.664;2024-01-30T06:14:21;30.50;;;14.63;;
18320;SDS011;54904;54.350;18.664;2024-01-30T06:16:48;30.43;;;14.13;;
18320;SDS011;54904;54.350;18.664;2024-01-30T06:19:16;32.73;;;15.57;;
18320;SDS011;54904;54.350;18.664;2024-01-30T06:21:43;32.37;;;15.40;;
18320;SDS011;54904;54.350;18.664;2024-01-30T06:24:12;36.83;;;17.00;;
18320;SDS011;54904;54.350;18.664;2024-01-30T06:26:39;33.33;;;16.03;;
18320;SDS011;54904;54.350;18.664;2024-01-30T06:29:06;28.53;;;13.60;;
18320;SDS011;54904;54.350;18.664;2024-01-30T06:31:39;30.77;;;13.70;;
18320;SDS011;54904;54.350;18.664;2024-01-30T06:34:06;27.10;;;13.47;;
18320;SDS011;54904;54.350;18.664;2024-01-30T06:36:33;28.63;;;13.87;;
18320;SDS011;54904;54.350;18.664;2024-01-30T06:39:00;27.57;;;14.20;;
18320;SDS011;54904;54.350;18.664;2024-01-30T06:41:29;30.40;;;14.37;;
18320;SDS011;54904;54.350;18.664;2024-01-30T06:43:56;38.23;;;17.50;;
18320;SDS011;54904;54.350;18.664;2024-01-30T06:46:23;40.43;;;16.17;;
18320;SDS011;54904;54.350;18.664;2024-01-30T06:48:50;36.27;;;16.67;;
18320;SDS011;54904;54.350;18.664;2024-01-30T06:51:17;31.00;;;15.23;;
18320;SDS011;54904;54.350;18.664;2024-01-30T06:53:44;28.87;;;14.30;;
18320;SDS011;54904;54.350;18.664;2024-01-30T06:56:11;29.57;;;14.57;;
18320;SDS011;54904;54.350;18.664;2024-01-30T06:58:40;28.63;;;13.73;;
18320;SDS011;54904;54.350;18.664;2024-01-30T07:01:07;28.20;;;14.33;;
18320;SDS011;54904;54.350;18.664;2024-01-30T07:03:35;26.40;;;13.60;;
18320;SDS011;54904;54.350;18.664;2024-01-30T07:06:02;31.17;;;14.50;;
18320;SDS011;54904;54.350;18.664;2024-01-30T07:08:29;32.83;;;14.50;;
18320;SDS011;54904;54.350;18.664;2024-01-30T07:10:56;23.90;;;12.53;;
18320;SDS011;54904;54.350;18.664;2024-01-30T07:13:23;23.57;;;11.63;;
18320;SDS011;54904;54.350;18.664;2024-01-30T07:15:52;26.40;;;13.37;;
18320;SDS011;54904;54.350;18.664;2024-01-30T07:18:19;26.47;;;13.27;;
18320;SDS011;54904;54.350;18.664;2024-01-30T07:20:46;28.43;;;12.70;;
18320;SDS011;54904;54.350;18.664;2024-01-30T07:23:14;31.10;;;14.67;;
18320;SDS011;54904;54.350;18.664;2024-01-30T07:25:42;36.73;;;17.17;;
18320;SDS011;54904;54.350;18.664;2024-01-30T07:28:10;46.03;;;18.70;;
18320;SDS011;54904;54.350;18.664;2024-01-30T07:30:37;35.20;;;16.97;;
18320;SDS011;54904;54.350;18.664;2024-01-30T07:33:06;34.43;;;16.03;;
18320;SDS011;54904;54.350;18.664;2024-01-30T07:35:33;37.23;;;17.80;;
18320;SDS011;54904;54.350;18.664;2024-01-30T07:38:00;36.07;;;17.10;;
18320;SDS011;54904;54.350;18.664;2024-01-30T07:40:27;40.17;;;17.97;;
18320;SDS011;54904;54.350;18.664;2024-01-30T07:42:55;42.70;;;18.63;;
18320;SDS011;54904;54.350;18.664;2024-01-30T07:45:22;36.30;;;16.70;;
18320;SDS011;54904;54.350;18.664;2024-01-30T07:47:53;40.17;;;17.13;;
18320;SDS011;54904;54.350;18.664;2024-01-30T07:50:22;37.47;;;16.63;;
18320;SDS011;54904;54.350;18.664;2024-01-30T07:52:49;36.13;;;16.10;;
18320;SDS011;54904;54.350;18.664;2024-01-30T07:55:19;27.83;;;14.10;;
18320;SDS011;54904;54.350;18.664;2024-01-30T07:57:49;32.77;;;15.10;;
18320;SDS011;54904;54.350;18.664;2024-01-30T08:00:18;29.00;;;13.80;;
18320;SDS011;54904;54.350;18.664;2024-01-30T08:02:45;27.70;;;12.87;;
18320;SDS011;54904;54.350;18.664;2024-01-30T08:05:13;33.30;;;14.43;;
18320;SDS011;54904;54.350;18.664;2024-01-30T08:07:41;29.40;;;13.40;;
18320;SDS011;54904;54.350;18.664;2024-01-30T08:10:10;24.60;;;12.13;;
18320;SDS011;54904;54.350;18.664;2024-01-30T08:12:38;31.03;;;13.87;;
18320;SDS011;54904;54.350;18.664;2024-01-30T08:15:05;30.37;;;13.57;;
18320;SDS011;54904;54.350;18.664;2024-01-30T08:17:33;25.73;;;12.70;;
18320;SDS011;54904;54.350;18.664;2024-01-30T08:20:00;22.77;;;12.10;;
18320;SDS011;54904;54.350;18.664;2024-01-30T08:22:29;26.37;;;12.23;;
18320;SDS011;54904;54.350;18.664;2024-01-30T08:24:58;25.60;;;12.80;;
18320;SDS011;54904;54.350;18.664;2024-01-30T08:27:25;27.57;;;13.37;;
18320;SDS011;54904;54.350;18.664;2024-01-30T08:29:52;27.37;;;14.00;;
18320;SDS011;54904;54.350;18.664;2024-01-30T08:32:19;30.27;;;14.80;;
18320;SDS011;54904;54.350;18.664;2024-01-30T08:34:46;29.70;;;14.43;;
18320;SDS011;54904;54.350;18.664;2024-01-30T08:37:13;30.87;;;14.67;;
18320;SDS011;54904;54.350;18.664;2024-01-30T08:39:41;28.47;;;12.63;;
18320;SDS011;54904;54.350;18.664;2024-01-30T08:42:10;29.57;;;13.70;;
18320;SDS011;54904;54.350;18.664;2024-01-30T08:44:37;31.70;;;14.10;;
18320;SDS011;54904;54.350;18.664;2024-01-30T08:47:04;30.10;;;14.63;;
18320;SDS011;54904;54.350;18.664;2024-01-30T08:49:32;28.97;;;14.00;;
18320;SDS011;54904;54.350;18.664;2024-01-30T08:51:59;37.73;;;14.67;;
18320;SDS011;54904;54.350;18.664;2024-01-30T08:54:26;30.60;;;15.07;;
18320;SDS011;54904;54.350;18.664;2024-01-30T08:56:53;38.97;;;17.00;;
18320;SDS011;54904;54.350;18.664;2024-01-30T08:59:23;32.27;;;16.13;;
18320;SDS011;54904;54.350;18.664;2024-01-30T09:01:50;37.47;;;18.17;;
18320;SDS011;54904;54.350;18.664;2024-01-30T09:04:18;29.87;;;15.93;;
18320;SDS011;54904;54.350;18.664;2024-01-30T09:06:45;32.97;;;16.17;;
18320;SDS011;54904;54.350;18.664;2024-01-30T09:09:12;30.63;;;15.80;;
18320;SDS011;54904;54.350;18.664;2024-01-30T09:11:40;30.43;;;15.60;;
18320;SDS011;54904;54.350;18.664;2024-01-30T09:14:07;35.50;;;17.83;;
18320;SDS011;54904;54.350;18.664;2024-01-30T09:16:38;30.23;;;14.60;;
18320;SDS011;54904;54.350;18.664;2024-01-30T09:19:05;33.50;;;15.63;;
18320;SDS011;54904;54.350;18.664;2024-01-30T09:21:32;29.30;;;14.93;;
18320;SDS011;54904;54.350;18.664;2024-01-30T09:24:01;29.73;;;14.87;;
18320;SDS011;54904;54.350;18.664;2024-01-30T09:26:29;30.23;;;15.30;;
18320;SDS011;54904;54.350;18.664;2024-01-30T09:28:56;30.63;;;14.60;;
18320;SDS011;54904;54.350;18.664;2024-01-30T09:31:23;35.67;;;15.53;;
18320;SDS011;54904;54.350;18.664;2024-01-30T09:33:51;28.27;;;14.40;;
18320;SDS011;54904;54.350;18.664;2024-01-30T09:36:19;23.70;;;12.77;;
18320;SDS011;54904;54.350;18.664;2024-01-30T09:38:47;23.40;;;12.43;;
18320;SDS011;54904;54.350;18.664;2024-01-30T09:41:14;22.33;;;11.97;;
18320;SDS011;54904;54.350;18.664;2024-01-30T09:43:41;24.63;;;12.30;;
18320;SDS011;54904;54.350;18.664;2024-01-30T09:46:14;27.43;;;12.87;;
18320;SDS011;54904;54.350;18.664;2024-01-30T09:48:42;23.97;;;12.83;;
18320;SDS011;54904;54.350;18.664;2024-01-30T09:51:13;23.80;;;12.47;;
18320;SDS011;54904;54.350;18.664;2024-01-30T09:53:41;27.60;;;13.47;;
18320;SDS011;54904;54.350;18.664;2024-01-30T09:56:10;24.10;;;12.20;;
18320;SDS011;54904;54.350;18.664;2024-01-30T09:58:38;21.80;;;11.70;;
18320;SDS011;54904;54.350;18.664;2024-01-30T10:01:06;29.63;;;14.83;;
18320;SDS011;54904;54.350;18.664;2024-01-30T10:03:33;26.57;;;12.67;;
18320;SDS011;54904;54.350;18.664;2024-01-30T10:06:00;27.50;;;13.97;;
18320;SDS011;54904;54.350;18.664;2024-01-30T10:08:29;28.43;;;13.50;;
18320;SDS011;54904;54.350;18.664;2024-01-30T10:10:56;30.37;;;14.43;;
18320;SDS011;54904;54.350;18.664;2024-01-30T10:13:23;31.67;;;15.07;;
18320;SDS011;54904;54.350;18.664;2024-01-30T10:15:52;29.20;;;14.07;;
18320;SDS011;54904;54.350;18.664;2024-01-30T10:18:20;31.70;;;13.53;;
18320;SDS011;54904;54.350;18.664;2024-01-30T10:20:48;25.10;;;12.53;;
18320;SDS011;54904;54.350;18.664;2024-01-30T10:23:16;34.67;;;15.57;;
18320;SDS011;54904;54.350;18.664;2024-01-30T10:25:45;35.23;;;15.90;;
18320;SDS011;54904;54.350;18.664;2024-01-30T10:28:13;38.23;;;15.97;;
18320;SDS011;54904;54.350;18.664;2024-01-30T10:30:40;32.67;;;15.27;;
18320;SDS011;54904;54.350;18.664;2024-01-30T10:33:07;34.73;;;15.80;;
18320;SDS011;54904;54.350;18.664;2024-01-30T10:35:34;33.17;;;15.33;;
18320;SDS011;54904;54.350;18.664;2024-01-30T10:38:01;32.60;;;14.23;;
18320;SDS011;54904;54.350;18.664;2024-01-30T10:40:29;24.13;;;12.83;;
18320;SDS011;54904;54.350;18.664;2024-01-30T10:42:59;28.60;;;13.70;;
18320;SDS011;54904;54.350;18.664;2024-01-30T10:45:28;24.73;;;12.33;;
18320;SDS011;54904;54.350;18.664;2024-01-30T10:47:56;27.90;;;14.07;;
18320;SDS011;54904;54.350;18.664;2024-01-30T10:50:26;25.73;;;12.67;;
18320;SDS011;54904;54.350;18.664;2024-01-30T10:52:54;32.53;;;16.00;;
18320;SDS011;54904;54.350;18.664;2024-01-30T10:55:22;30.60;;;14.93;;
18320;SDS011;54904;54.350;18.664;2024-01-30T10:57:50;30.00;;;15.57;;
18320;SDS011;54904;54.350;18.664;2024-01-30T11:00:18;36.10;;;15.27;;
18320;SDS011;54904;54.350;18.664;2024-01-30T11:02:48;32.07;;;14.97;;
18320;SDS011;54904;54.350;18.664;2024-01-30T11:05:23;26.37;;;13.00;;
18320;SDS011;54904;54.350;18.664;2024-01-30T11:07:52;30.27;;;14.57;;
18320;SDS011;54904;54.350;18.664;2024-01-30T11:10:19;31.93;;;15.10;;
18320;SDS011;54904;54.350;18.664;2024-01-30T11:12:46;30.07;;;15.23;;
18320;SDS011;54904;54.350;18.664;2024-01-30T11:15:16;31.53;;;15.30;;
18320;SDS011;54904;54.350;18.664;2024-01-30T11:17:50;32.27;;;15.53;;
18320;SDS011;54904;54.350;18.664;2024-01-30T11:20:19;30.63;;;14.77;;
18320;SDS011;54904;54.350;18.664;2024-01-30T11:22:49;32.97;;;15.60;;
18320;SDS011;54904;54.350;18.664;2024-01-30T11:25:19;32.07;;;14.93;;
18320;SDS011;54904;54.350;18.664;2024-01-30T11:27:49;28.87;;;14.80;;
18320;SDS011;54904;54.350;18.664;2024-01-30T11:30:25;26.67;;;14.03;;
18320;SDS011;54904;54.350;18.664;2024-01-30T11:33:04;27.87;;;13.90;;
18320;SDS011;54904;54.350;18.664;2024-01-30T11:35:34;31.87;;;14.67;;
18320;SDS011;54904;54.350;18.664;2024-01-30T11:38:03;28.00;;;14.00;;
18320;SDS011;54904;54.350;18.664;2024-01-30T11:40:31;25.60;;;13.37;;
18320;SDS011;54904;54.350;18.664;2024-01-30T11:42:59;23.10;;;12.17;;
18320;SDS011;54904;54.350;18.664;2024-01-30T11:45:28;24.73;;;12.77;;
18320;SDS011;54904;54.350;18.664;2024-01-30T11:47:56;25.50;;;12.70;;
18320;SDS011;54904;54.350;18.664;2024-01-30T11:50:25;24.83;;;12.50;;
18320;SDS011;54904;54.350;18.664;2024-01-30T11:52:52;27.77;;;14.03;;
18320;SDS011;54904;54.350;18.664;2024-01-30T11:55:21;33.17;;;15.27;;
18320;SDS011;54904;54.350;18.664;2024-01-30T11:57:48;31.37;;;14.33;;
18320;SDS011;54904;54.350;18.664;2024-01-30T12:00:15;29.63;;;14.43;;
18320;SDS011;54904;54.350;18.664;2024-01-30T12:02:48;29.47;;;14.73;;
18320;SDS011;54904;54.350;18.664;2024-01-30T12:05:16;31.27;;;14.40;;
18320;SDS011;54904;54.350;18.664;2024-01-30T12:07:45;30.17;;;13.63;;
18320;SDS011;54904;54.350;18.664;2024-01-30T12:10:12;33.03;;;14.90;;
18320;SDS011;54904;54.350;18.664;2024-01-30T12:12:40;40.53;;;15.10;;
18320;SDS011;54904;54.350;18.664;2024-01-30T12:15:10;33.10;;;13.93;;
18320;SDS011;54904;54.350;18.664;2024-01-30T12:17:37;28.00;;;13.40;;
18320;SDS011;54904;54.350;18.664;2024-01-30T12:20:06;34.57;;;14.77;;
18320;SDS011;54904;54.350;18.664;2024-01-30T12:22:35;32.50;;;13.60;;
18320;SDS011;54904;54.350;18.664;2024-01-30T12:25:04;32.03;;;14.50;;
18320;SDS011;54904;54.350;18.664;2024-01-30T12:27:31;31.33;;;14.97;;
18320;SDS011;54904;54.350;18.664;2024-01-30T12:29:59;32.97;;;14.50;;
18320;SDS011;54904;54.350;18.664;2024-01-30T12:32:26;30.43;;;14.43;;
18320;SDS011;54904;54.350;18.664;2024-01-30T12:34:54;31.17;;;14.43;;
18320;SDS011;54904;54.350;18.664;2024-01-30T12:37:24;32.77;;;15.90;;
18320;SDS011;54904;54.350;18.664;2024-01-30T12:39:51;28.57;;;13.30;;
18320;SDS011;54904;54.350;18.664;2024-01-30T12:42:19;28.10;;;14.10;;
18320;SDS011;54904;54.350;18.664;2024-01-30T12:44:47;30.23;;;13.50;;
18320;SDS011;54904;54.350;18.664;2024-01-30T12:47:14;29.27;;;13.23;;
18320;SDS011;54904;54.350;18.664;2024-01-30T12:49:42;29.60;;;13.03;;
18320;SDS011;54904;54.350;18.664;2024-01-30T12:52:10;30.87;;;14.40;;
18320;SDS011;54904;54.350;18.664;2024-01-30T12:54:38;30.10;;;13.67;;
18320;SDS011;54904;54.350;18.664;2024-01-30T12:57:06;28.10;;;13.43;;
18320;SDS011;54904;54.350;18.664;2024-01-30T12:59:33;28.83;;;12.97;;
18320;SDS011;54904;54.350;18.664;2024-01-30T13:02:00;26.73;;;13.37;;
18320;SDS011;54904;54.350;18.664;2024-01-30T13:04:28;27.43;;;13.77;;
18320;SDS011;54904;54.350;18.664;2024-01-30T13:06:56;27.93;;;13.30;;
18320;SDS011;54904;54.350;18.664;2024-01-30T13:09:23;24.47;;;12.40;;
18320;SDS011;54904;54.350;18.664;2024-01-30T13:11:52;25.63;;;12.83;;
18320;SDS011;54904;54.350;18.664;2024-01-30T13:14:19;28.77;;;12.87;;
18320;SDS011;54904;54.350;18.664;2024-01-30T13:16:46;27.40;;;13.63;;
18320;SDS011;54904;54.350;18.664;2024-01-30T13:19:13;28.67;;;13.83;;
18320;SDS011;54904;54.350;18.664;2024-01-30T13:21:40;30.13;;;14.63;;
18320;SDS011;54904;54.350;18.664;2024-01-30T13:24:07;29.93;;;15.50;;
18320;SDS011;54904;54.350;18.664;2024-01-30T13:26:34;34.83;;;15.83;;
18320;SDS011;54904;54.350;18.664;2024-01-30T13:29:03;31.80;;;13.97;;
18320;SDS011;54904;54.350;18.664;2024-01-30T13:31:30;30.97;;;14.77;;
18320;SDS011;54904;54.350;18.664;2024-01-30T13:33:57;25.40;;;13.47;;
18320;SDS011;54904;54.350;18.664;2024-01-30T13:36:24;30.70;;;12.87;;
18320;SDS011;54904;54.350;18.664;2024-01-30T13:38:51;31.37;;;13.47;;
18320;SDS011;54904;54.350;18.664;2024-01-30T13:41:18;26.10;;;13.20;;
18320;SDS011;54904;54.350;18.664;2024-01-30T13:43:46;25.87;;;14.00;;
18320;SDS011;54904;54.350;18.664;2024-01-30T13:46:14;27.30;;;13.70;;
18320;SDS011;54904;54.350;18.664;2024-01-30T13:48:41;29.73;;;14.50;;
18320;SDS011;54904;54.350;18.664;2024-01-30T13:51:08;31.63;;;14.87;;
18320;SDS011;54904;54.350;18.664;2024-01-30T13:53:36;25.67;;;12.80;;
18320;SDS011;54904;54.350;18.664;2024-01-30T13:56:03;28.60;;;12.90;;
18320;SDS011;54904;54.350;18.664;2024-01-30T13:58:31;25.70;;;14.17;;
18320;SDS011;54904;54.350;18.664;2024-01-30T14:01:00;24.67;;;13.03;;
18320;SDS011;54904;54.350;18.664;2024-01-30T14:03:28;30.97;;;14.57;;
18320;SDS011;54904;54.350;18.664;2024-01-30T14:05:55;32.63;;;15.60;;
18320;SDS011;54904;54.350;18.664;2024-01-30T14:08:22;27.93;;;14.10;;
18320;SDS011;54904;54.350;18.664;2024-01-30T14:10:53;26.80;;;13.03;;